Terminal Aerodrome Forecast
Issued by NWS Los Angeles, CA

Home | Current Version | Previous Version | Text Only | Print | Product List | Glossary On
Versions: 1 2 3 4 5 6 7 8 9 10 11 12 13 14 15 16 17 18 19 20 21
832
FTUS46 KLOX 231137
TAFSMX
TAF
KSMX 231137Z 2312/2412 VRB05KT P6SM SCT007
     FM232000 31012KT P6SM SKC
     FM240500 VRB05KT P6SM SCT007=

USA.gov is the U.S. government's official web portal to all federal, state and local government web resources and services.